Time;durP1;ratioP1;P1;durP2;ratioP2;P2;SDS_P1;SDS_P2;PMS_P1;PMS_P2;Temp;Humidity;BMP_temperature;BMP_pressure;BME280_temperature;BME280_humidity;BME280_pressure;Samples;Min_cycle;Max_cycle;Signal;HPM_P1;HPM_P2
2023/03/04 00:02:06;;;;;;;50.72;22.10;;;;;;;6.19;63.25;101491.72;5070078;27;99409;-72
2023/03/04 00:04:32;;;;;;;49.55;20.77;;;;;;;6.12;63.25;101492.63;5065089;27;101013;-72
2023/03/04 00:06:59;;;;;;;47.42;21.48;;;;;;;6.23;63.12;101489.97;5061369;27;96705;-72
2023/03/04 00:09:26;;;;;;;48.10;20.30;;;;;;;6.27;62.59;101492.56;5071153;27;98118;-72
2023/03/04 00:11:53;;;;;;;54.38;21.27;;;;;;;6.35;62.47;101496.00;5059455;27;98914;-72
2023/03/04 00:14:20;;;;;;;47.78;20.00;;;;;;;6.23;62.67;101492.59;5073031;27;101967;-72
2023/03/04 00:16:47;;;;;;;45.28;17.83;;;;;;;6.14;63.41;101490.88;5062087;27;97055;-72
2023/03/04 00:19:14;;;;;;;51.42;20.52;;;;;;;6.10;63.55;101477.81;5067541;27;98204;-73
2023/03/04 00:21:41;;;;;;;51.42;19.58;;;;;;;6.25;63.31;101486.44;5064682;27;97798;-72
2023/03/04 00:24:07;;;;;;;51.38;19.55;;;;;;;6.22;63.23;101482.97;5064938;27;99246;-72
2023/03/04 00:26:35;;;;;;;44.78;18.52;;;;;;;6.24;63.27;101481.19;5064559;27;97133;-72
2023/03/04 00:29:02;;;;;;;51.53;19.45;;;;;;;6.43;63.01;101474.09;5065892;27;96864;-73
2023/03/04 00:31:28;;;;;;;48.10;19.67;;;;;;;6.61;61.80;101481.84;5058625;27;98321;-72
2023/03/04 00:33:54;;;;;;;46.13;19.02;;;;;;;6.48;62.21;101482.81;5053298;27;97569;-73
2023/03/04 00:36:21;;;;;;;46.55;19.60;;;;;;;6.73;61.97;101481.72;5061032;27;97335;-73
2023/03/04 00:38:47;;;;;;;50.08;19.90;;;;;;;6.65;61.47;101479.16;5059292;27;96928;-72
2023/03/04 00:41:14;;;;;;;51.63;19.42;;;;;;;6.42;62.15;101481.09;5069295;27;98977;-74
2023/03/04 00:43:41;;;;;;;52.15;18.98;;;;;;;6.52;62.31;101460.88;5064156;27;98816;-73
2023/03/04 00:46:08;;;;;;;43.60;17.30;;;;;;;6.41;62.49;101476.72;5061632;27;96775;-71
2023/03/04 00:48:34;;;;;;;46.78;18.27;;;;;;;6.62;62.14;101468.69;5056777;27;98598;-72
2023/03/04 00:51:01;;;;;;;47.80;17.75;;;;;;;6.29;62.46;101463.69;5066755;27;99285;-73
2023/03/04 00:53:27;;;;;;;45.15;16.67;;;;;;;6.38;62.76;101467.09;5061049;27;100397;-72
2023/03/04 00:55:54;;;;;;;41.67;16.80;;;;;;;6.11;63.32;101464.66;5065533;27;97888;-72
2023/03/04 00:58:20;;;;;;;43.92;17.60;;;;;;;6.44;62.75;101466.19;5063531;27;96895;-73
2023/03/04 01:00:48;;;;;;;42.20;16.80;;;;;;;6.71;61.70;101458.09;5062367;27;99890;-73
2023/03/04 01:03:15;;;;;;;46.45;16.35;;;;;;;6.75;61.59;101464.22;5067571;27;101971;-73
2023/03/04 01:05:41;;;;;;;46.08;16.10;;;;;;;6.99;60.55;101463.09;5065607;27;96983;-74
2023/03/04 01:08:11;;;;;;;45.40;15.18;;;;;;;6.73;61.44;101458.97;5067995;27;98417;-73
2023/03/04 01:10:37;;;;;;;45.33;15.88;;;;;;;6.61;62.15;101459.06;5069887;27;97760;-74
2023/03/04 01:13:04;;;;;;;49.00;15.48;;;;;;;6.87;61.28;101448.34;5066724;27;99449;-73
2023/03/04 01:15:30;;;;;;;41.83;15.98;;;;;;;6.83;61.30;101449.22;5067933;27;96783;-72
2023/03/04 01:17:58;;;;;;;41.83;14.98;;;;;;;6.81;61.49;101448.41;5063463;27;97093;-74
2023/03/04 01:20:27;;;;;;;47.67;14.73;;;;;;;6.91;61.35;101444.78;5065180;27;98872;-75
2023/03/04 01:22:54;;;;;;;44.92;13.73;;;;;;;6.98;60.84;101435.09;5064833;27;97666;-73
2023/03/04 01:25:21;;;;;;;38.33;12.80;;;;;;;6.77;61.27;101423.91;5066198;27;97019;-73
2023/03/04 01:27:47;;;;;;;38.22;12.82;;;;;;;6.80;61.53;101426.50;5062251;27;97726;-73
2023/03/04 01:30:14;;;;;;;32.80;12.13;;;;;;;7.01;60.58;101421.94;5062181;27;98220;-73
2023/03/04 01:32:41;;;;;;;37.83;12.18;;;;;;;6.94;61.13;101415.88;5064327;27;99148;-73
2023/03/04 01:35:10;;;;;;;36.08;11.98;;;;;;;7.01;60.44;101432.44;5064990;27;96981;-73
2023/03/04 01:37:36;;;;;;;36.55;12.55;;;;;;;7.10;60.29;101430.56;5057525;27;97139;-73
2023/03/04 01:40:04;;;;;;;38.53;10.68;;;;;;;7.06;60.27;101423.63;5053759;27;99004;-73
2023/03/04 01:42:34;;;;;;;34.05;10.23;;;;;;;7.35;59.51;101414.56;5063400;27;100974;-73
2023/03/04 01:45:01;;;;;;;36.35;10.73;;;;;;;7.28;59.43;101418.16;5067605;27;97568;-74
2023/03/04 01:47:29;;;;;;;33.33;10.23;;;;;;;7.22;59.94;101413.78;5064092;27;96866;-73
2023/03/04 01:49:57;;;;;;;34.08;10.05;;;;;;;7.24;59.86;101403.28;5067088;27;101408;-73
2023/03/04 01:52:27;;;;;;;29.70;9.05;;;;;;;7.40;59.71;101400.47;5062660;27;98514;-73
2023/03/04 01:54:54;;;;;;;30.60;10.00;;;;;;;7.03;60.58;101396.50;5067137;27;98049;-73
2023/03/04 01:57:23;;;;;;;27.08;9.40;;;;;;;7.42;59.65;101400.41;5071154;27;96770;-73
2023/03/04 02:00:15;;;;;;;37.05;10.15;;;;;;;7.63;59.06;101392.25;5064682;27;99157;-73
2023/03/04 02:02:41;;;;;;;28.98;9.20;;;;;;;7.50;59.36;101399.44;5065212;27;99148;-73
2023/03/04 02:05:08;;;;;;;28.70;8.60;;;;;;;7.58;59.02;101391.47;5067046;27;96786;-72
2023/03/04 02:07:36;;;;;;;34.70;9.27;;;;;;;7.49;59.71;101391.56;5065644;27;98353;-73
2023/03/04 02:10:04;;;;;;;29.15;8.77;;;;;;;7.39;60.09;101390.81;5070350;27;98554;-74
2023/03/04 02:12:30;;;;;;;36.50;10.60;;;;;;;7.79;59.18;101395.56;5064978;27;98800;-74
2023/03/04 02:14:57;;;;;;;33.33;8.75;;;;;;;7.73;59.38;101393.03;5059453;27;96718;-72
2023/03/04 02:17:25;;;;;;;19.45;7.30;;;;;;;7.45;60.13;101379.34;5069750;27;96834;-75
2023/03/04 02:20:01;;;;;;;24.05;7.43;;;;;;;7.47;60.56;101381.09;5070068;27;98934;-73
2023/03/04 02:22:28;;;;;;;28.42;8.70;;;;;;;7.75;59.83;101386.84;5065489;27;97711;-74
2023/03/04 02:25:00;;;;;;;28.85;8.80;;;;;;;7.82;59.48;101374.47;5070463;27;97296;-74
2023/03/04 02:27:28;;;;;;;26.92;7.60;;;;;;;7.48;60.86;101377.53;5065662;27;97198;-73
2023/03/04 02:29:54;;;;;;;38.13;8.23;;;;;;;7.83;59.72;101365.69;5065514;27;99640;-73
2023/03/04 02:32:21;;;;;;;30.63;8.07;;;;;;;7.86;59.82;101360.38;5070388;27;99071;-73
2023/03/04 02:34:50;;;;;;;28.15;7.03;;;;;;;7.89;59.68;101362.97;5069329;27;96879;-72
2023/03/04 02:37:20;;;;;;;30.75;6.20;;;;;;;7.95;59.46;101352.34;5066678;27;96923;-72
2023/03/04 02:39:48;;;;;;;26.80;7.25;;;;;;;7.81;59.95;101349.06;5069490;27;99201;-72
2023/03/04 02:42:17;;;;;;;36.65;7.63;;;;;;;7.72;60.07;101346.56;5064962;27;97828;-73
2023/03/04 02:44:48;;;;;;;30.90;6.88;;;;;;;7.63;60.97;101342.28;5067706;27;96723;-73
2023/03/04 02:47:17;;;;;;;24.52;7.43;;;;;;;7.57;61.26;101340.63;5061462;27;97335;-72
2023/03/04 02:49:45;;;;;;;29.92;7.18;;;;;;;7.38;62.15;101341.75;5067340;27;99920;-73
2023/03/04 02:52:15;;;;;;;25.45;7.35;;;;;;;7.66;61.62;101341.38;5060308;27;98867;-73
2023/03/04 02:54:41;;;;;;;29.17;6.55;;;;;;;7.72;61.06;101338.66;5063432;27;97687;-73
2023/03/04 02:57:10;;;;;;;24.35;6.43;;;;;;;7.58;61.52;101329.22;5059543;27;96912;-73
2023/03/04 02:59:37;;;;;;;21.90;6.03;;;;;;;7.61;61.22;101330.94;5059881;27;99277;-73
2023/03/04 03:02:05;;;;;;;28.40;6.05;;;;;;;7.62;61.75;101340.53;5067135;27;98998;-73
2023/03/04 03:04:33;;;;;;;25.25;6.53;;;;;;;7.64;61.46;101336.13;5064513;27;97317;-73
2023/03/04 03:06:59;;;;;;;27.45;6.93;;;;;;;7.32;62.87;101333.94;5068531;27;97087;-72
2023/03/04 03:09:26;;;;;;;23.80;5.95;;;;;;;7.37;62.94;101333.88;5065551;27;98136;-72
2023/03/04 03:11:53;;;;;;;30.23;6.78;;;;;;;7.70;61.89;101332.56;5066907;27;100094;-72
2023/03/04 03:14:20;;;;;;;22.52;6.22;;;;;;;7.52;62.28;101334.56;5069165;27;96761;-72
2023/03/04 03:16:49;;;;;;;29.77;6.15;;;;;;;7.48;62.61;101329.38;5069020;27;97009;-72
2023/03/04 03:19:17;;;;;;;35.92;5.88;;;;;;;7.48;62.73;101330.22;5060777;27;98907;-72
2023/03/04 03:21:44;;;;;;;26.17;6.55;;;;;;;7.89;61.73;101334.00;5060592;27;98242;-73
2023/03/04 03:24:10;;;;;;;22.23;5.90;;;;;;;8.07;60.92;101330.25;5064985;27;96714;-73
2023/03/04 03:26:38;;;;;;;27.38;6.07;;;;;;;8.26;60.50;101324.66;5067666;27;96935;-72
2023/03/04 03:29:05;;;;;;;30.98;7.55;;;;;;;7.93;61.42;101323.44;5059207;27;97811;-72
2023/03/04 03:31:31;;;;;;;24.08;7.43;;;;;;;7.53;63.39;101328.41;5052866;27;98911;-74
2023/03/04 03:33:57;;;;;;;28.17;6.03;;;;;;;7.81;62.63;101318.34;5066152;27;96869;-73
2023/03/04 03:36:25;;;;;;;23.33;5.57;;;;;;;7.96;62.18;101315.47;5061629;27;96830;-72
2023/03/04 03:38:51;;;;;;;34.78;5.95;;;;;;;8.01;61.90;101308.38;5067956;27;97659;-73
2023/03/04 03:41:18;;;;;;;25.83;5.68;;;;;;;7.96;62.10;101318.13;5066429;27;97903;-73
2023/03/04 03:43:44;;;;;;;24.38;5.40;;;;;;;8.00;61.40;101308.44;5058606;27;97269;-72
2023/03/04 03:46:11;;;;;;;20.50;5.78;;;;;;;7.80;62.59;101305.22;5065378;27;96866;-74
2023/03/04 03:48:37;;;;;;;32.38;5.50;;;;;;;7.69;62.78;101308.00;5064094;27;99116;-72
2023/03/04 03:51:04;;;;;;;25.73;4.90;;;;;;;7.55;63.74;101294.19;5070439;27;100998;-72
2023/03/04 03:53:31;;;;;;;25.52;5.22;;;;;;;7.69;62.94;101299.25;5064931;27;97034;-73
2023/03/04 03:55:58;;;;;;;26.00;5.95;;;;;;;7.75;62.92;101297.38;5068083;27;97549;-72
2023/03/04 03:58:25;;;;;;;35.17;5.35;;;;;;;8.04;62.16;101294.31;5063268;27;98887;-73
2023/03/04 04:00:52;;;;;;;30.02;5.93;;;;;;;8.10;61.83;101288.94;5066602;27;99327;-72
2023/03/04 04:03:19;;;;;;;20.92;4.68;;;;;;;8.14;61.87;101292.41;5066065;27;96771;-72
2023/03/04 04:05:45;;;;;;;25.85;4.75;;;;;;;8.23;61.59;101279.06;5071046;27;97207;-73
2023/03/04 04:08:13;;;;;;;20.02;4.35;;;;;;;8.12;61.65;101295.06;5066909;27;98945;-73
2023/03/04 04:10:41;;;;;;;22.92;4.90;;;;;;;7.61;63.27;101286.22;5068329;27;99009;-75
2023/03/04 04:13:07;;;;;;;29.88;4.97;;;;;;;7.57;63.82;101287.16;5064803;27;96816;-73
2023/03/04 04:15:34;;;;;;;21.65;4.18;;;;;;;7.89;63.13;101295.41;5062842;27;96736;-73
2023/03/04 04:18:00;;;;;;;18.55;4.43;;;;;;;7.95;63.02;101287.41;5070530;27;98939;-72
2023/03/04 04:20:27;;;;;;;22.23;5.40;;;;;;;7.89;62.82;101277.00;5068932;27;99071;-73
2023/03/04 04:22:54;;;;;;;18.90;4.43;;;;;;;7.72;63.41;101283.44;5072144;27;96908;-74
2023/03/04 04:25:20;;;;;;;22.58;4.53;;;;;;;7.77;63.37;101287.72;5074001;27;96810;-73
2023/03/04 04:27:48;;;;;;;18.50;3.97;;;;;;;7.80;63.57;101276.28;5073078;27;98895;-73
2023/03/04 04:30:17;;;;;;;20.85;4.82;;;;;;;7.83;63.38;101273.59;5067971;27;99356;-75
2023/03/04 04:32:43;;;;;;;22.85;4.40;;;;;;;7.97;63.12;101271.63;5066477;27;98593;-75
2023/03/04 04:35:10;;;;;;;27.77;4.93;;;;;;;7.89;63.23;101273.50;5056175;27;97079;-75
2023/03/04 04:37:36;;;;;;;19.67;4.10;;;;;;;8.10;62.46;101275.78;5066076;27;98929;-75
2023/03/04 04:40:03;;;;;;;19.75;4.30;;;;;;;8.36;61.88;101273.59;5060701;27;101034;-75
2023/03/04 04:42:30;;;;;;;25.02;4.55;;;;;;;8.39;61.56;101268.28;5060553;27;98629;-74
2023/03/04 04:44:58;;;;;;;23.10;4.75;;;;;;;8.22;61.57;101269.44;5064480;27;97423;-74
2023/03/04 04:47:24;;;;;;;18.75;4.57;;;;;;;8.26;61.71;101279.91;5053960;27;98086;-74
2023/03/04 04:49:51;;;;;;;18.80;4.55;;;;;;;8.13;62.38;101266.97;5069155;27;101326;-75
2023/03/04 04:52:17;;;;;;;16.40;4.22;;;;;;;8.21;62.06;101273.81;5065549;27;97381;-75
2023/03/04 04:54:44;;;;;;;18.23;4.13;;;;;;;8.21;61.87;101271.19;5064849;27;98616;-75
2023/03/04 04:57:10;;;;;;;21.83;4.57;;;;;;;8.32;61.81;101253.50;5064517;27;99011;-73
2023/03/04 04:59:37;;;;;;;24.05;4.78;;;;;;;8.43;61.50;101265.59;5069946;27;100594;-73
2023/03/04 05:02:04;;;;;;;22.55;5.97;;;;;;;8.37;61.54;101249.00;5068513;27;98616;-73
2023/03/04 05:04:31;;;;;;;30.70;5.80;;;;;;;8.46;61.02;101261.16;5065763;27;97262;-73
2023/03/04 05:06:57;;;;;;;17.38;4.57;;;;;;;8.33;61.71;101260.50;5064727;27;101528;-73
2023/03/04 05:09:24;;;;;;;18.10;4.22;;;;;;;8.45;61.37;101258.53;5060230;27;98723;-73
2023/03/04 05:11:50;;;;;;;17.08;3.75;;;;;;;8.58;60.81;101257.41;5065095;27;96722;-72
2023/03/04 05:14:17;;;;;;;18.08;3.65;;;;;;;8.68;60.40;101251.91;5056803;27;96794;-73
2023/03/04 05:16:44;;;;;;;24.38;4.25;;;;;;;8.42;61.25;101258.56;5069924;27;100828;-73
2023/03/04 05:19:11;;;;;;;15.77;3.88;;;;;;;8.60;60.71;101258.25;5067817;27;98912;-74
2023/03/04 05:21:38;;;;;;;19.90;4.43;;;;;;;8.09;62.65;101252.97;5070957;27;97389;-74
2023/03/04 05:24:05;;;;;;;18.40;3.47;;;;;;;8.26;62.04;101250.06;5056985;27;98133;-73
2023/03/04 05:26:32;;;;;;;20.23;3.75;;;;;;;8.38;61.98;101250.75;5065285;27;99253;-74
2023/03/04 05:28:58;;;;;;;26.17;4.82;;;;;;;8.63;61.48;101258.16;5063325;27;98944;-73
2023/03/04 05:31:24;;;;;;;14.57;3.33;;;;;;;8.69;60.93;101242.25;5071637;27;96928;-74
2023/03/04 05:33:51;;;;;;;13.05;3.55;;;;;;;8.35;62.17;101249.91;5063617;27;97329;-73
2023/03/04 05:36:19;;;;;;;19.55;3.50;;;;;;;8.43;61.79;101245.38;5065909;27;97593;-73
2023/03/04 05:38:45;;;;;;;17.40;3.40;;;;;;;8.51;61.72;101247.88;5055912;27;102051;-73
2023/03/04 05:41:12;;;;;;;14.30;3.28;;;;;;;8.48;62.07;101254.06;5057038;27;96696;-73
2023/03/04 05:43:41;;;;;;;18.13;4.05;;;;;;;8.79;61.13;101252.56;5066717;27;99124;-73
2023/03/04 05:46:08;;;;;;;18.70;4.38;;;;;;;8.79;60.87;101243.81;5068360;27;98900;-72
2023/03/04 05:48:35;;;;;;;20.73;3.10;;;;;;;8.64;61.20;101246.75;5061147;27;99383;-72
2023/03/04 05:51:02;;;;;;;19.25;4.05;;;;;;;8.34;62.52;101245.53;5067723;27;97244;-72
2023/03/04 05:53:30;;;;;;;19.00;4.20;;;;;;;8.59;61.74;101245.97;5068007;27;96793;-74
2023/03/04 05:55:58;;;;;;;14.05;3.28;;;;;;;8.60;61.80;101239.81;5063886;27;97910;-73
2023/03/04 05:58:24;;;;;;;18.95;3.28;;;;;;;8.37;62.78;101241.09;5066043;27;98856;-73
2023/03/04 06:00:50;;;;;;;22.30;3.25;;;;;;;8.15;63.68;101241.47;5060249;27;96963;-73
2023/03/04 06:03:18;;;;;;;11.63;2.90;;;;;;;8.54;62.75;101251.31;5065486;27;96954;-71
2023/03/04 06:05:45;;;;;;;14.65;3.00;;;;;;;8.62;62.43;101248.53;5069111;27;97720;-72
2023/03/04 06:08:12;;;;;;;13.32;2.63;;;;;;;8.59;62.60;101241.56;5060988;27;99484;-71
2023/03/04 06:10:41;;;;;;;16.95;3.55;;;;;;;8.48;63.07;101246.16;5063128;27;97267;-73
2023/03/04 06:13:08;;;;;;;11.95;2.65;;;;;;;8.51;63.09;101250.50;5064576;27;97187;-72
2023/03/04 06:15:35;;;;;;;11.40;2.80;;;;;;;8.53;63.43;101243.47;5063079;27;98873;-73
2023/03/04 06:18:01;;;;;;;9.45;3.17;;;;;;;8.64;63.02;101244.09;5067596;27;98288;-72
2023/03/04 06:20:28;;;;;;;15.38;2.78;;;;;;;8.57;63.38;101255.66;5062374;27;96741;-71
2023/03/04 06:22:54;;;;;;;14.27;3.17;;;;;;;8.70;63.06;101250.13;5062570;27;97062;-75
2023/03/04 06:25:20;;;;;;;19.48;3.53;;;;;;;8.72;63.07;101244.84;5064147;27;98026;-73
2023/03/04 06:27:48;;;;;;;21.55;4.63;;;;;;;8.78;63.11;101255.25;5061754;27;99358;-74
2023/03/04 06:30:15;;;;;;;15.90;3.03;;;;;;;8.57;63.77;101253.03;5066764;27;97107;-74
2023/03/04 06:32:43;;;;;;;15.20;2.97;;;;;;;8.55;64.48;101249.53;5064099;27;97698;-73
2023/03/04 06:35:10;;;;;;;15.13;3.47;;;;;;;8.56;64.46;101246.88;5060858;27;100462;-75
2023/03/04 06:37:36;;;;;;;15.25;2.85;;;;;;;8.64;64.40;101249.38;5065498;27;99052;-73
2023/03/04 06:40:03;;;;;;;14.15;2.72;;;;;;;8.91;63.92;101251.47;5059312;27;96941;-73
2023/03/04 06:42:30;;;;;;;9.90;3.38;;;;;;;8.77;64.41;101250.88;5068593;27;97085;-74
2023/03/04 06:44:57;;;;;;;13.50;3.33;;;;;;;8.88;64.65;101255.91;5063859;27;98164;-74
2023/03/04 06:47:24;;;;;;;14.23;2.75;;;;;;;8.86;64.46;101260.38;5058091;27;99447;-74
2023/03/04 06:49:51;;;;;;;17.90;2.88;;;;;;;8.87;64.64;101265.59;5057951;27;97062;-73
2023/03/04 06:52:18;;;;;;;12.07;3.08;;;;;;;9.04;64.29;101258.22;5067780;27;96907;-74
2023/03/04 06:54:44;;;;;;;17.33;2.97;;;;;;;8.78;65.17;101257.88;5066464;27;101465;-72
2023/03/04 06:57:12;;;;;;;13.75;3.33;;;;;;;8.83;65.47;101255.16;5062835;27;98118;-73
2023/03/04 06:59:38;;;;;;;11.05;3.00;;;;;;;8.68;66.13;101253.69;5064638;27;97865;-73
2023/03/04 07:02:06;;;;;;;14.88;2.50;;;;;;;8.39;67.12;101263.03;5061398;27;96810;-75
2023/03/04 07:04:33;;;;;;;9.88;2.58;;;;;;;8.67;66.75;101268.63;5057603;27;98949;-74
2023/03/04 07:07:00;;;;;;;10.80;2.58;;;;;;;8.93;66.05;101259.31;5061569;27;99020;-75
2023/03/04 07:09:26;;;;;;;7.38;2.50;;;;;;;8.85;66.37;101261.25;5059600;27;96884;-73
2023/03/04 07:11:52;;;;;;;9.73;2.80;;;;;;;9.11;65.74;101269.50;5066047;27;96935;-73
2023/03/04 07:14:19;;;;;;;9.95;2.95;;;;;;;8.85;66.19;101262.13;5065535;27;99004;-74
2023/03/04 07:16:46;;;;;;;14.50;3.13;;;;;;;8.94;66.13;101266.31;5064986;27;98743;-73
2023/03/04 07:19:13;;;;;;;20.95;3.67;;;;;;;8.91;65.79;101267.28;5069354;27;96965;-73
2023/03/04 07:21:40;;;;;;;9.55;2.40;;;;;;;8.98;65.40;101257.47;5068792;27;96928;-73
2023/03/04 07:24:07;;;;;;;9.90;2.80;;;;;;;9.02;65.79;101269.69;5064331;27;101273;-74
2023/03/04 07:26:33;;;;;;;18.38;3.05;;;;;;;9.16;65.35;101267.63;5061401;27;98856;-73
2023/03/04 07:29:00;;;;;;;12.80;3.03;;;;;;;9.32;64.67;101263.75;5063921;27;97232;-73
2023/03/04 07:31:29;;;;;;;12.70;2.60;;;;;;;9.13;65.29;101260.63;5068343;27;96780;-72
2023/03/04 07:33:58;;;;;;;7.45;2.60;;;;;;;9.44;64.62;101263.50;5065648;27;98303;-73
2023/03/04 07:36:26;;;;;;;8.50;2.40;;;;;;;9.36;65.35;101261.91;5064549;27;98645;-73
2023/03/04 07:38:54;;;;;;;8.73;2.40;;;;;;;8.84;67.89;101254.25;5063992;27;96773;-72
2023/03/04 07:41:22;;;;;;;9.15;2.30;;;;;;;9.03;67.76;101260.88;5068669;27;96974;-73
2023/03/04 07:43:49;;;;;;;4.03;2.05;;;;;;;8.59;68.78;101260.00;5064088;27;98798;-73
2023/03/04 07:46:16;;;;;;;8.82;2.45;;;;;;;8.69;69.02;101258.91;5061827;27;100564;-73
2023/03/04 07:48:43;;;;;;;11.23;2.40;;;;;;;8.89;68.89;101270.84;5059777;27;97015;-74
2023/03/04 07:51:12;;;;;;;10.00;2.47;;;;;;;9.03;68.22;101267.03;5071168;27;99092;-73
2023/03/04 07:53:42;;;;;;;9.40;2.80;;;;;;;9.35;67.02;101262.81;5068764;27;99392;-71
2023/03/04 07:56:12;;;;;;;13.52;2.15;;;;;;;9.43;66.06;101261.75;5071905;27;98641;-72
2023/03/04 07:58:39;;;;;;;13.32;2.15;;;;;;;9.74;64.98;101259.25;5066787;27;96969;-73
2023/03/04 08:01:09;;;;;;;11.80;2.25;;;;;;;9.82;64.36;101259.94;5069005;27;96900;-72
2023/03/04 08:03:36;;;;;;;10.10;2.08;;;;;;;9.90;64.00;101263.28;5063246;27;97850;-72
2023/03/04 08:06:05;;;;;;;7.32;2.25;;;;;;;9.81;64.49;101258.22;5064024;27;99073;-72
2023/03/04 08:08:31;;;;;;;10.65;1.70;;;;;;;9.75;64.68;101257.50;5065678;27;97416;-72
2023/03/04 08:10:59;;;;;;;4.60;1.48;;;;;;;9.86;63.98;101261.59;5068469;27;97596;-73
2023/03/04 08:13:26;;;;;;;4.53;1.75;;;;;;;9.66;64.52;101257.69;5065971;27;98846;-72
2023/03/04 08:15:52;;;;;;;8.63;1.80;;;;;;;9.61;64.41;101255.19;5065622;27;99251;-72
2023/03/04 08:18:19;;;;;;;6.93;1.38;;;;;;;9.47;64.68;101247.56;5061555;27;96836;-72
2023/03/04 08:20:45;;;;;;;4.50;1.50;;;;;;;9.46;65.12;101243.19;5061464;27;98525;-72
2023/03/04 08:23:11;;;;;;;9.57;1.63;;;;;;;9.60;64.07;101253.44;5058631;27;97862;-72
2023/03/04 08:25:39;;;;;;;3.83;1.52;;;;;;;9.62;64.05;101251.63;5062547;27;99661;-72
2023/03/04 08:28:08;;;;;;;8.40;1.98;;;;;;;9.72;62.90;101255.78;5063732;27;97349;-72
2023/03/04 08:30:36;;;;;;;12.73;1.92;;;;;;;9.86;62.10;101248.41;5068096;27;97212;-72
2023/03/04 08:33:07;;;;;;;5.50;1.52;;;;;;;9.56;62.52;101247.38;5064925;27;98868;-72
2023/03/04 08:35:36;;;;;;;10.43;1.40;;;;;;;9.70;61.42;101238.28;5066356;27;97526;-73
2023/03/04 08:38:02;;;;;;;12.60;1.67;;;;;;;9.40;62.02;101243.34;5060598;27;97119;-73
2023/03/04 08:40:29;;;;;;;4.43;1.30;;;;;;;9.77;61.05;101240.72;5066828;27;96786;-72
2023/03/04 08:42:56;;;;;;;6.93;1.27;;;;;;;10.39;59.62;101235.63;5060773;27;99381;-71
2023/03/04 08:45:24;;;;;;;11.32;1.75;;;;;;;10.42;58.00;101235.56;5058591;27;98896;-72
2023/03/04 08:47:51;;;;;;;6.60;1.52;;;;;;;10.73;56.59;101235.56;5069038;27;97506;-72
2023/03/04 08:50:18;;;;;;;12.82;1.70;;;;;;;10.18;55.33;101222.97;5065477;27;98031;-73
2023/03/04 08:52:45;;;;;;;9.80;1.08;;;;;;;9.86;55.55;101222.00;5063056;27;101023;-72
2023/03/04 08:55:12;;;;;;;5.68;1.20;;;;;;;9.86;55.80;101226.41;5066556;27;97831;-72
2023/03/04 08:57:38;;;;;;;10.10;1.48;;;;;;;9.86;56.07;101229.91;5061817;27;97114;-74
2023/03/04 09:00:05;;;;;;;8.95;1.50;;;;;;;9.40;58.14;101224.00;5070456;27;97583;-73
2023/03/04 09:02:33;;;;;;;8.27;1.60;;;;;;;9.79;57.01;101222.19;5068412;27;99054;-72
2023/03/04 09:05:00;;;;;;;9.52;1.63;;;;;;;10.05;57.05;101222.41;5067381;27;98818;-72
2023/03/04 09:07:27;;;;;;;13.65;1.58;;;;;;;10.19;55.82;101216.78;5066356;27;98860;-73
2023/03/04 09:09:58;;;;;;;10.65;1.92;;;;;;;9.99;56.54;101219.91;5067560;27;97040;-72
2023/03/04 09:12:24;;;;;;;5.78;1.25;;;;;;;9.69;57.37;101224.19;5061947;27;99684;-73
2023/03/04 09:14:51;;;;;;;11.13;2.15;;;;;;;10.02;57.15;101235.69;5052495;27;99324;-73
2023/03/04 09:17:18;;;;;;;9.93;2.38;;;;;;;10.55;55.67;101230.81;5064371;27;96916;-72
2023/03/04 09:19:45;;;;;;;11.30;2.08;;;;;;;10.52;55.53;101229.09;5065602;27;100134;-73
2023/03/04 09:22:12;;;;;;;11.07;2.50;;;;;;;10.60;55.37;101232.41;5065505;27;98985;-73
2023/03/04 09:24:41;;;;;;;9.43;2.70;;;;;;;11.03;54.74;101236.44;5058301;27;99110;-74
2023/03/04 09:27:09;;;;;;;13.65;2.15;;;;;;;11.01;54.27;101235.63;5060761;27;97119;-74
2023/03/04 09:29:36;;;;;;;8.98;2.00;;;;;;;11.13;54.03;101241.44;5067537;27;97108;-76
2023/03/04 09:32:02;;;;;;;10.20;1.55;;;;;;;11.15;53.10;101241.41;5059099;27;98223;-74
2023/03/04 09:34:29;;;;;;;9.23;1.60;;;;;;;11.25;52.37;101237.53;5061498;27;99184;-73
2023/03/04 09:36:57;;;;;;;7.90;1.65;;;;;;;11.02;53.18;101232.97;5066639;27;97021;-73
2023/03/04 09:39:23;;;;;;;7.60;1.70;;;;;;;11.46;51.68;101243.97;5064000;27;97544;-73
2023/03/04 09:41:55;;;;;;;7.97;1.20;;;;;;;11.04;52.01;101240.81;5057734;27;101945;-72
2023/03/04 09:44:24;;;;;;;9.05;1.40;;;;;;;11.45;51.84;101244.88;5058590;27;99560;-74
2023/03/04 09:46:51;;;;;;;9.93;1.98;;;;;;;11.22;51.36;101245.59;5065221;27;97791;-74
2023/03/04 09:49:19;;;;;;;7.60;1.35;;;;;;;11.02;52.45;101251.47;5063300;27;97749;-73
2023/03/04 09:52:02;;;;;;;14.70;2.17;;;;;;;10.81;52.49;101241.50;5062898;27;101433;-74
2023/03/04 09:55:01;;;;;;;11.75;2.00;;;;;;;10.79;52.30;101246.84;5055960;27;101827;-74
2023/03/04 09:57:47;;;;;;;11.82;2.63;;;;;;;11.04;52.06;101239.03;5059105;27;97629;-74
2023/03/04 10:00:18;;;;;;;6.00;1.60;;;;;;;11.37;51.46;101239.81;5070120;27;96766;-73
2023/03/04 10:03:03;;;;;;;14.32;2.40;;;;;;;11.52;50.21;101249.94;5058379;27;99392;-73
2023/03/04 10:05:32;;;;;;;10.65;1.42;;;;;;;11.36;50.77;101246.00;5066532;27;99023;-75
2023/03/04 10:08:09;;;;;;;14.85;2.63;;;;;;;11.20;49.84;101244.75;5063869;27;96929;-74
2023/03/04 10:10:42;;;;;;;15.95;1.80;;;;;;;10.83;51.26;101252.03;5060951;27;97236;-74
2023/03/04 10:13:16;;;;;;;12.52;1.60;;;;;;;10.79;51.66;101246.84;5062160;27;101640;-74
2023/03/04 10:15:49;;;;;;;11.85;1.50;;;;;;;10.93;51.52;101240.28;5060406;27;98789;-74
2023/03/04 10:18:21;;;;;;;11.10;2.10;;;;;;;11.06;50.74;101239.88;5064906;27;97539;-74
2023/03/04 10:20:55;;;;;;;9.27;1.50;;;;;;;11.33;49.95;101239.97;5067706;27;96904;-74
2023/03/04 10:23:26;;;;;;;10.13;1.58;;;;;;;10.41;52.12;101235.59;5067089;27;99474;-72
2023/03/04 10:25:53;;;;;;;11.45;1.83;;;;;;;10.89;51.74;101246.59;5058917;27;98942;-74
2023/03/04 10:28:23;;;;;;;9.68;1.88;;;;;;;11.06;51.10;101247.81;5059118;27;98938;-73
2023/03/04 10:30:56;;;;;;;13.15;1.92;;;;;;;11.56;50.19;101240.97;5065181;27;96852;-75
2023/03/04 10:33:25;;;;;;;13.35;2.03;;;;;;;11.03;50.48;101239.94;5063343;27;98711;-76
2023/03/04 10:36:00;;;;;;;9.65;2.10;;;;;;;11.01;49.39;101233.88;5060456;27;98230;-73
2023/03/04 10:38:30;;;;;;;16.45;2.45;;;;;;;10.95;49.16;101230.53;5063641;27;98943;-73
2023/03/04 10:40:58;;;;;;;16.75;2.47;;;;;;;11.73;47.12;101242.22;5065027;27;97103;-75
2023/03/04 10:43:25;;;;;;;16.98;2.60;;;;;;;12.06;46.01;101235.84;5064350;27;101344;-75
2023/03/04 10:45:56;;;;;;;11.23;2.80;;;;;;;11.52;45.93;101231.41;5059875;27;99179;-72
2023/03/04 10:48:25;;;;;;;14.70;2.03;;;;;;;12.09;45.18;101233.06;5061771;27;97403;-75
2023/03/04 10:50:52;;;;;;;12.32;2.42;;;;;;;11.97;44.50;101236.13;5061938;27;97397;-75
2023/03/04 10:53:28;;;;;;;14.85;2.25;;;;;;;11.53;44.83;101235.78;5059206;27;102455;-76
2023/03/04 10:55:56;;;;;;;17.85;2.88;;;;;;;11.36;45.41;101232.78;5060202;27;98316;-77
2023/03/04 10:58:23;;;;;;;15.70;2.88;;;;;;;11.83;44.74;101230.44;5061139;27;99231;-75
2023/03/04 11:00:59;;;;;;;19.20;2.45;;;;;;;11.80;44.13;101242.00;5065600;27;96936;-74
2023/03/04 11:03:32;;;;;;;13.45;2.25;;;;;;;11.81;43.87;101245.53;5065707;27;99364;-76
2023/03/04 11:06:11;;;;;;;17.38;2.60;;;;;;;11.72;43.69;101243.13;5056858;27;97997;-75
2023/03/04 11:08:39;;;;;;;21.52;2.15;;;;;;;11.76;43.91;101239.50;5058094;27;96866;-75
2023/03/04 11:11:22;;;;;;;17.92;2.80;;;;;;;11.83;43.63;101238.38;5065930;27;99689;-75
2023/03/04 11:13:52;;;;;;;17.00;2.53;;;;;;;12.01;43.50;101239.56;5063264;27;99592;-74
2023/03/04 11:16:26;;;;;;;17.70;2.58;;;;;;;12.12;43.03;101240.94;5066486;27;98747;-73
2023/03/04 11:18:54;;;;;;;20.75;3.45;;;;;;;12.17;43.17;101249.59;5061777;27;99562;-74
2023/03/04 11:21:24;;;;;;;13.40;2.45;;;;;;;12.32;42.35;101243.75;5057767;27;97764;-74
2023/03/04 11:23:54;;;;;;;20.92;3.42;;;;;;;11.95;43.19;101248.56;5057707;27;98853;-71
2023/03/04 11:26:30;;;;;;;14.25;2.53;;;;;;;12.53;42.09;101244.81;5059809;27;99138;-74